sensor_id;sensor_type;location;lat;lon;timestamp;P1;durP1;ratioP1;P2;durP2;ratioP2
10509;SDS011;5303;53.266;10.410;2022-07-01T00:00:06;9.65;;;7.07;;
10509;SDS011;5303;53.266;10.410;2022-07-01T00:02:31;9.00;;;7.18;;
10509;SDS011;5303;53.266;10.410;2022-07-01T00:04:57;8.15;;;7.45;;
10509;SDS011;5303;53.266;10.410;2022-07-01T00:07:22;8.85;;;7.72;;
10509;SDS011;5303;53.266;10.410;2022-07-01T00:09:47;8.23;;;7.40;;
10509;SDS011;5303;53.266;10.410;2022-07-01T00:12:13;8.07;;;7.28;;
10509;SDS011;5303;53.266;10.410;2022-07-01T00:14:38;8.60;;;7.03;;
10509;SDS011;5303;53.266;10.410;2022-07-01T00:17:03;7.93;;;7.13;;
10509;SDS011;5303;53.266;10.410;2022-07-01T00:19:29;9.38;;;6.03;;
10509;SDS011;5303;53.266;10.410;2022-07-01T00:21:54;6.10;;;5.50;;
10509;SDS011;5303;53.266;10.410;2022-07-01T00:24:19;7.82;;;5.93;;
10509;SDS011;5303;53.266;10.410;2022-07-01T00:26:44;8.45;;;5.97;;
10509;SDS011;5303;53.266;10.410;2022-07-01T00:29:10;6.10;;;4.97;;
10509;SDS011;5303;53.266;10.410;2022-07-01T00:31:35;5.03;;;4.18;;
10509;SDS011;5303;53.266;10.410;2022-07-01T00:34:01;6.60;;;4.22;;
10509;SDS011;5303;53.266;10.410;2022-07-01T00:36:27;4.22;;;3.92;;
10509;SDS011;5303;53.266;10.410;2022-07-01T00:38:52;4.95;;;4.03;;
10509;SDS011;5303;53.266;10.410;2022-07-01T00:41:17;4.47;;;3.90;;
10509;SDS011;5303;53.266;10.410;2022-07-01T00:43:42;5.22;;;3.60;;
10509;SDS011;5303;53.266;10.410;2022-07-01T00:46:08;4.55;;;4.15;;
10509;SDS011;5303;53.266;10.410;2022-07-01T00:48:33;5.22;;;4.18;;
10509;SDS011;5303;53.266;10.410;2022-07-01T00:50:59;5.50;;;4.25;;
10509;SDS011;5303;53.266;10.410;2022-07-01T00:53:24;7.40;;;3.92;;
10509;SDS011;5303;53.266;10.410;2022-07-01T00:55:50;4.13;;;3.72;;
10509;SDS011;5303;53.266;10.410;2022-07-01T00:58:15;7.32;;;3.05;;
10509;SDS011;5303;53.266;10.410;2022-07-01T01:00:41;5.00;;;4.00;;
10509;SDS011;5303;53.266;10.410;2022-07-01T01:03:07;4.03;;;3.38;;
10509;SDS011;5303;53.266;10.410;2022-07-01T01:05:36;4.47;;;3.35;;
10509;SDS011;5303;53.266;10.410;2022-07-01T01:08:02;3.63;;;3.30;;
10509;SDS011;5303;53.266;10.410;2022-07-01T01:10:28;8.63;;;3.97;;
10509;SDS011;5303;53.266;10.410;2022-07-01T01:12:55;4.38;;;3.97;;
10509;SDS011;5303;53.266;10.410;2022-07-01T01:15:21;5.40;;;3.67;;
10509;SDS011;5303;53.266;10.410;2022-07-01T01:17:47;4.18;;;3.67;;
10509;SDS011;5303;53.266;10.410;2022-07-01T01:20:16;4.80;;;4.13;;
10509;SDS011;5303;53.266;10.410;2022-07-01T01:22:43;4.38;;;3.80;;
10509;SDS011;5303;53.266;10.410;2022-07-01T01:25:09;5.82;;;3.83;;
10509;SDS011;5303;53.266;10.410;2022-07-01T01:27:34;3.72;;;3.40;;
10509;SDS011;5303;53.266;10.410;2022-07-01T01:29:59;3.92;;;3.58;;
10509;SDS011;5303;53.266;10.410;2022-07-01T01:32:25;5.40;;;3.88;;
10509;SDS011;5303;53.266;10.410;2022-07-01T01:34:50;4.80;;;4.40;;
10509;SDS011;5303;53.266;10.410;2022-07-01T01:37:15;5.20;;;4.03;;
10509;SDS011;5303;53.266;10.410;2022-07-01T01:39:41;5.80;;;4.35;;
10509;SDS011;5303;53.266;10.410;2022-07-01T01:42:06;5.00;;;3.85;;
10509;SDS011;5303;53.266;10.410;2022-07-01T01:44:32;4.32;;;3.92;;
10509;SDS011;5303;53.266;10.410;2022-07-01T01:46:58;4.68;;;4.13;;
10509;SDS011;5303;53.266;10.410;2022-07-01T01:49:23;7.50;;;4.50;;
10509;SDS011;5303;53.266;10.410;2022-07-01T01:51:48;6.78;;;4.30;;
10509;SDS011;5303;53.266;10.410;2022-07-01T01:54:14;4.72;;;4.03;;
10509;SDS011;5303;53.266;10.410;2022-07-01T01:56:39;5.15;;;4.35;;
10509;SDS011;5303;53.266;10.410;2022-07-01T01:59:05;4.35;;;3.95;;
10509;SDS011;5303;53.266;10.410;2022-07-01T02:01:30;7.15;;;3.70;;
10509;SDS011;5303;53.266;10.410;2022-07-01T02:03:56;4.53;;;4.13;;
10509;SDS011;5303;53.266;10.410;2022-07-01T02:06:21;4.85;;;4.10;;
10509;SDS011;5303;53.266;10.410;2022-07-01T02:08:47;5.40;;;3.90;;
10509;SDS011;5303;53.266;10.410;2022-07-01T02:11:14;4.32;;;3.92;;
10509;SDS011;5303;53.266;10.410;2022-07-01T02:13:39;4.65;;;4.05;;
10509;SDS011;5303;53.266;10.410;2022-07-01T02:16:05;4.28;;;3.85;;
10509;SDS011;5303;53.266;10.410;2022-07-01T02:18:30;5.75;;;4.25;;
10509;SDS011;5303;53.266;10.410;2022-07-01T02:20:57;5.05;;;4.53;;
10509;SDS011;5303;53.266;10.410;2022-07-01T02:23:25;6.03;;;4.50;;
10509;SDS011;5303;53.266;10.410;2022-07-01T02:25:51;7.87;;;4.93;;
10509;SDS011;5303;53.266;10.410;2022-07-01T02:28:16;4.90;;;4.40;;
10509;SDS011;5303;53.266;10.410;2022-07-01T02:30:42;6.00;;;4.53;;
10509;SDS011;5303;53.266;10.410;2022-07-01T02:33:07;4.57;;;4.17;;
10509;SDS011;5303;53.266;10.410;2022-07-01T02:35:34;6.27;;;4.73;;
10509;SDS011;5303;53.266;10.410;2022-07-01T02:38:01;7.03;;;5.27;;
10509;SDS011;5303;53.266;10.410;2022-07-01T02:40:27;5.43;;;4.93;;
10509;SDS011;5303;53.266;10.410;2022-07-01T02:42:52;5.83;;;5.03;;
10509;SDS011;5303;53.266;10.410;2022-07-01T02:45:17;6.20;;;5.27;;
10509;SDS011;5303;53.266;10.410;2022-07-01T02:47:43;7.43;;;5.20;;
10509;SDS011;5303;53.266;10.410;2022-07-01T02:50:10;6.17;;;5.50;;
10509;SDS011;5303;53.266;10.410;2022-07-01T02:52:36;6.77;;;5.33;;
10509;SDS011;5303;53.266;10.410;2022-07-01T02:55:03;6.97;;;5.80;;
10509;SDS011;5303;53.266;10.410;2022-07-01T02:57:30;8.77;;;5.80;;
10509;SDS011;5303;53.266;10.410;2022-07-01T02:59:55;7.37;;;5.97;;
10509;SDS011;5303;53.266;10.410;2022-07-01T03:02:21;8.30;;;6.47;;
10509;SDS011;5303;53.266;10.410;2022-07-01T03:04:47;8.13;;;5.97;;
10509;SDS011;5303;53.266;10.410;2022-07-01T03:07:13;7.27;;;6.37;;
10509;SDS011;5303;53.266;10.410;2022-07-01T03:09:39;8.47;;;6.10;;
10509;SDS011;5303;53.266;10.410;2022-07-01T03:12:05;9.83;;;6.10;;
10509;SDS011;5303;53.266;10.410;2022-07-01T03:14:50;8.03;;;5.73;;
10509;SDS011;5303;53.266;10.410;2022-07-01T03:17:29;10.90;;;6.20;;
10509;SDS011;5303;53.266;10.410;2022-07-01T03:19:56;7.63;;;6.27;;
10509;SDS011;5303;53.266;10.410;2022-07-01T03:22:24;7.40;;;6.17;;
10509;SDS011;5303;53.266;10.410;2022-07-01T03:24:51;7.43;;;6.13;;
10509;SDS011;5303;53.266;10.410;2022-07-01T03:27:17;7.83;;;6.40;;
10509;SDS011;5303;53.266;10.410;2022-07-01T03:29:44;8.53;;;6.90;;
10509;SDS011;5303;53.266;10.410;2022-07-01T03:32:10;7.00;;;6.30;;
10509;SDS011;5303;53.266;10.410;2022-07-01T03:34:39;7.27;;;5.83;;
10509;SDS011;5303;53.266;10.410;2022-07-01T03:37:07;8.93;;;6.50;;
10509;SDS011;5303;53.266;10.410;2022-07-01T03:39:33;10.03;;;6.77;;
10509;SDS011;5303;53.266;10.410;2022-07-01T03:42:00;8.57;;;6.20;;
10509;SDS011;5303;53.266;10.410;2022-07-01T03:44:26;8.07;;;6.83;;
10509;SDS011;5303;53.266;10.410;2022-07-01T03:46:52;8.07;;;6.77;;
10509;SDS011;5303;53.266;10.410;2022-07-01T03:49:17;6.73;;;6.03;;
10509;SDS011;5303;53.266;10.410;2022-07-01T03:51:43;8.57;;;7.33;;
10509;SDS011;5303;53.266;10.410;2022-07-01T03:54:08;9.63;;;7.13;;
10509;SDS011;5303;53.266;10.410;2022-07-01T03:56:52;8.60;;;6.37;;
10509;SDS011;5303;53.266;10.410;2022-07-01T03:59:17;9.40;;;7.20;;
10509;SDS011;5303;53.266;10.410;2022-07-01T04:01:43;8.20;;;7.40;;
10509;SDS011;5303;53.266;10.410;2022-07-01T04:04:08;10.80;;;7.97;;
10509;SDS011;5303;53.266;10.410;2022-07-01T04:06:33;11.33;;;7.93;;
10509;SDS011;5303;53.266;10.410;2022-07-01T04:08:59;9.10;;;8.10;;
10509;SDS011;5303;53.266;10.410;2022-07-01T04:11:25;9.27;;;7.17;;
10509;SDS011;5303;53.266;10.410;2022-07-01T04:13:50;9.10;;;7.90;;
10509;SDS011;5303;53.266;10.410;2022-07-01T04:16:16;11.80;;;8.63;;
10509;SDS011;5303;53.266;10.410;2022-07-01T04:18:42;9.20;;;8.13;;
10509;SDS011;5303;53.266;10.410;2022-07-01T04:21:08;9.20;;;8.20;;
10509;SDS011;5303;53.266;10.410;2022-07-01T04:24:09;9.83;;;8.07;;
10509;SDS011;5303;53.266;10.410;2022-07-01T04:26:34;11.63;;;8.40;;
10509;SDS011;5303;53.266;10.410;2022-07-01T04:29:00;9.63;;;7.80;;
10509;SDS011;5303;53.266;10.410;2022-07-01T04:31:25;8.70;;;7.40;;
10509;SDS011;5303;53.266;10.410;2022-07-01T04:33:51;9.60;;;7.33;;
10509;SDS011;5303;53.266;10.410;2022-07-01T04:36:16;7.37;;;6.57;;
10509;SDS011;5303;53.266;10.410;2022-07-01T04:38:42;9.70;;;7.43;;
10509;SDS011;5303;53.266;10.410;2022-07-01T04:41:09;6.73;;;6.07;;
10509;SDS011;5303;53.266;10.410;2022-07-01T04:43:52;7.20;;;6.17;;
10509;SDS011;5303;53.266;10.410;2022-07-01T04:46:18;7.07;;;5.73;;
10509;SDS011;5303;53.266;10.410;2022-07-01T04:48:43;8.57;;;6.33;;
10509;SDS011;5303;53.266;10.410;2022-07-01T04:51:08;6.80;;;6.20;;
10509;SDS011;5303;53.266;10.410;2022-07-01T04:53:34;7.17;;;6.30;;
10509;SDS011;5303;53.266;10.410;2022-07-01T04:55:59;7.20;;;6.47;;
10509;SDS011;5303;53.266;10.410;2022-07-01T04:58:24;11.57;;;6.60;;
10509;SDS011;5303;53.266;10.410;2022-07-01T05:00:51;7.40;;;6.27;;
10509;SDS011;5303;53.266;10.410;2022-07-01T05:03:17;7.70;;;6.90;;
10509;SDS011;5303;53.266;10.410;2022-07-01T05:05:43;8.23;;;7.33;;
10509;SDS011;5303;53.266;10.410;2022-07-01T05:08:08;10.10;;;7.17;;
10509;SDS011;5303;53.266;10.410;2022-07-01T05:10:34;10.57;;;8.67;;
10509;SDS011;5303;53.266;10.410;2022-07-01T05:12:59;11.63;;;9.80;;
10509;SDS011;5303;53.266;10.410;2022-07-01T05:15:24;12.97;;;11.03;;
10509;SDS011;5303;53.266;10.410;2022-07-01T05:17:50;15.00;;;11.70;;
10509;SDS011;5303;53.266;10.410;2022-07-01T05:20:34;13.77;;;11.80;;
10509;SDS011;5303;53.266;10.410;2022-07-01T05:23:17;14.23;;;11.57;;
10509;SDS011;5303;53.266;10.410;2022-07-01T05:25:43;13.33;;;11.30;;
10509;SDS011;5303;53.266;10.410;2022-07-01T05:28:08;10.83;;;8.37;;
10509;SDS011;5303;53.266;10.410;2022-07-01T05:30:33;10.90;;;8.60;;
10509;SDS011;5303;53.266;10.410;2022-07-01T05:32:59;7.87;;;6.97;;
10509;SDS011;5303;53.266;10.410;2022-07-01T05:35:24;7.07;;;5.93;;
10509;SDS011;5303;53.266;10.410;2022-07-01T05:37:49;6.83;;;4.80;;
10509;SDS011;5303;53.266;10.410;2022-07-01T05:40:14;8.53;;;5.27;;
10509;SDS011;5303;53.266;10.410;2022-07-01T05:42:40;6.53;;;4.93;;
10509;SDS011;5303;53.266;10.410;2022-07-01T05:45:05;5.70;;;4.80;;
10509;SDS011;5303;53.266;10.410;2022-07-01T05:47:31;5.20;;;4.63;;
10509;SDS011;5303;53.266;10.410;2022-07-01T05:49:56;5.00;;;4.07;;
10509;SDS011;5303;53.266;10.410;2022-07-01T05:52:21;6.70;;;4.47;;
10509;SDS011;5303;53.266;10.410;2022-07-01T05:54:47;3.73;;;3.43;;
10509;SDS011;5303;53.266;10.410;2022-07-01T05:57:12;7.10;;;4.50;;
10509;SDS011;5303;53.266;10.410;2022-07-01T05:59:37;4.10;;;3.47;;
10509;SDS011;5303;53.266;10.410;2022-07-01T06:02:03;4.57;;;3.20;;
10509;SDS011;5303;53.266;10.410;2022-07-01T06:04:28;4.50;;;3.20;;
10509;SDS011;5303;53.266;10.410;2022-07-01T06:06:54;3.20;;;2.67;;
10509;SDS011;5303;53.266;10.410;2022-07-01T06:09:19;6.20;;;2.47;;
10509;SDS011;5303;53.266;10.410;2022-07-01T06:11:44;1.70;;;1.60;;
10509;SDS011;5303;53.266;10.410;2022-07-01T06:14:11;1.80;;;1.30;;
10509;SDS011;5303;53.266;10.410;2022-07-01T06:16:36;2.40;;;1.30;;
10509;SDS011;5303;53.266;10.410;2022-07-01T06:19:01;1.47;;;1.27;;
10509;SDS011;5303;53.266;10.410;2022-07-01T06:21:28;2.57;;;1.37;;
10509;SDS011;5303;53.266;10.410;2022-07-01T06:23:53;1.47;;;1.10;;
10509;SDS011;5303;53.266;10.410;2022-07-01T06:26:18;2.27;;;1.27;;
10509;SDS011;5303;53.266;10.410;2022-07-01T06:28:44;1.53;;;1.30;;
10509;SDS011;5303;53.266;10.410;2022-07-01T06:31:09;1.37;;;1.23;;
10509;SDS011;5303;53.266;10.410;2022-07-01T06:33:34;2.90;;;1.13;;
10509;SDS011;5303;53.266;10.410;2022-07-01T06:35:59;1.53;;;1.23;;
10509;SDS011;5303;53.266;10.410;2022-07-01T06:38:25;4.77;;;1.60;;
10509;SDS011;5303;53.266;10.410;2022-07-01T06:40:51;2.97;;;1.23;;
10509;SDS011;5303;53.266;10.410;2022-07-01T06:43:35;1.37;;;1.20;;
10509;SDS011;5303;53.266;10.410;2022-07-01T06:46:01;1.70;;;1.20;;
10509;SDS011;5303;53.266;10.410;2022-07-01T06:48:26;2.03;;;1.23;;
10509;SDS011;5303;53.266;10.410;2022-07-01T06:50:52;4.63;;;1.30;;
10509;SDS011;5303;53.266;10.410;2022-07-01T06:53:17;1.30;;;1.20;;
10509;SDS011;5303;53.266;10.410;2022-07-01T06:55:42;2.40;;;1.37;;
10509;SDS011;5303;53.266;10.410;2022-07-01T06:58:08;2.07;;;1.70;;
10509;SDS011;5303;53.266;10.410;2022-07-01T07:00:35;2.00;;;1.80;;
10509;SDS011;5303;53.266;10.410;2022-07-01T07:03:01;2.13;;;1.50;;
10509;SDS011;5303;53.266;10.410;2022-07-01T07:05:27;1.43;;;1.33;;
10509;SDS011;5303;53.266;10.410;2022-07-01T07:07:55;1.33;;;1.23;;
10509;SDS011;5303;53.266;10.410;2022-07-01T07:10:20;1.37;;;1.27;;
10509;SDS011;5303;53.266;10.410;2022-07-01T07:12:45;2.80;;;1.80;;
10509;SDS011;5303;53.266;10.410;2022-07-01T07:15:11;1.80;;;1.70;;
10509;SDS011;5303;53.266;10.410;2022-07-01T07:17:36;2.73;;;1.83;;
10509;SDS011;5303;53.266;10.410;2022-07-01T07:20:01;2.47;;;2.00;;
10509;SDS011;5303;53.266;10.410;2022-07-01T07:22:27;5.63;;;2.10;;
10509;SDS011;5303;53.266;10.410;2022-07-01T07:24:52;2.87;;;2.00;;
10509;SDS011;5303;53.266;10.410;2022-07-01T07:27:18;3.17;;;1.90;;
10509;SDS011;5303;53.266;10.410;2022-07-01T07:29:44;4.50;;;2.03;;
10509;SDS011;5303;53.266;10.410;2022-07-01T07:32:09;3.27;;;1.87;;
10509;SDS011;5303;53.266;10.410;2022-07-01T07:34:35;3.53;;;2.17;;
10509;SDS011;5303;53.266;10.410;2022-07-01T07:37:00;3.40;;;2.10;;
10509;SDS011;5303;53.266;10.410;2022-07-01T07:39:25;2.40;;;2.20;;
10509;SDS011;5303;53.266;10.410;2022-07-01T07:41:51;2.97;;;2.47;;
10509;SDS011;5303;53.266;10.410;2022-07-01T07:44:16;2.60;;;2.37;;
10509;SDS011;5303;53.266;10.410;2022-07-01T07:46:41;4.63;;;2.50;;
10509;SDS011;5303;53.266;10.410;2022-07-01T07:49:07;6.63;;;2.90;;
10509;SDS011;5303;53.266;10.410;2022-07-01T07:51:32;4.03;;;3.10;;
10509;SDS011;5303;53.266;10.410;2022-07-01T07:53:58;4.80;;;3.47;;
10509;SDS011;5303;53.266;10.410;2022-07-01T07:56:25;6.80;;;4.00;;
10509;SDS011;5303;53.266;10.410;2022-07-01T07:58:50;5.17;;;3.83;;
10509;SDS011;5303;53.266;10.410;2022-07-01T08:01:16;4.10;;;3.33;;
10509;SDS011;5303;53.266;10.410;2022-07-01T08:03:41;4.73;;;3.37;;
10509;SDS011;5303;53.266;10.410;2022-07-01T08:06:06;4.27;;;3.13;;
10509;SDS011;5303;53.266;10.410;2022-07-01T08:08:31;3.53;;;3.00;;
10509;SDS011;5303;53.266;10.410;2022-07-01T08:10:57;4.70;;;3.70;;
10509;SDS011;5303;53.266;10.410;2022-07-01T08:13:23;3.33;;;3.00;;
10509;SDS011;5303;53.266;10.410;2022-07-01T08:15:48;5.57;;;3.20;;
10509;SDS011;5303;53.266;10.410;2022-07-01T08:18:13;3.73;;;2.90;;
10509;SDS011;5303;53.266;10.410;2022-07-01T08:20:39;4.73;;;3.20;;
10509;SDS011;5303;53.266;10.410;2022-07-01T08:23:04;3.87;;;2.60;;
10509;SDS011;5303;53.266;10.410;2022-07-01T08:25:29;6.10;;;2.97;;
10509;SDS011;5303;53.266;10.410;2022-07-01T08:27:55;4.83;;;2.77;;
10509;SDS011;5303;53.266;10.410;2022-07-01T08:30:20;2.47;;;2.20;;
10509;SDS011;5303;53.266;10.410;2022-07-01T08:32:45;3.90;;;2.37;;
10509;SDS011;5303;53.266;10.410;2022-07-01T08:35:10;2.63;;;2.43;;
10509;SDS011;5303;53.266;10.410;2022-07-01T08:37:36;3.77;;;2.80;;
10509;SDS011;5303;53.266;10.410;2022-07-01T08:40:01;3.60;;;2.57;;
10509;SDS011;5303;53.266;10.410;2022-07-01T08:42:26;3.57;;;2.60;;
10509;SDS011;5303;53.266;10.410;2022-07-01T08:44:52;4.93;;;2.70;;
10509;SDS011;5303;53.266;10.410;2022-07-01T08:47:17;3.30;;;2.70;;
10509;SDS011;5303;53.266;10.410;2022-07-01T08:49:42;2.70;;;2.50;;
10509;SDS011;5303;53.266;10.410;2022-07-01T08:52:09;3.77;;;2.47;;
10509;SDS011;5303;53.266;10.410;2022-07-01T08:54:35;4.73;;;2.70;;
10509;SDS011;5303;53.266;10.410;2022-07-01T08:57:04;4.43;;;2.60;;
10509;SDS011;5303;53.266;10.410;2022-07-01T08:59:29;4.30;;;2.50;;
10509;SDS011;5303;53.266;10.410;2022-07-01T09:01:56;4.03;;;2.37;;
10509;SDS011;5303;53.266;10.410;2022-07-01T09:04:25;3.70;;;2.40;;
10509;SDS011;5303;53.266;10.410;2022-07-01T09:06:51;2.70;;;2.13;;
10509;SDS011;5303;53.266;10.410;2022-07-01T09:09:25;2.67;;;2.47;;
10509;SDS011;5303;53.266;10.410;2022-07-01T09:11:51;3.97;;;2.10;;
10509;SDS011;5303;53.266;10.410;2022-07-01T09:14:18;3.13;;;1.97;;
10509;SDS011;5303;53.266;10.410;2022-07-01T09:16:46;2.87;;;2.30;;
10509;SDS011;5303;53.266;10.410;2022-07-01T09:19:14;2.00;;;1.80;;
10509;SDS011;5303;53.266;10.410;2022-07-01T09:21:40;2.70;;;2.37;;
10509;SDS011;5303;53.266;10.410;2022-07-01T09:24:21;5.67;;;2.60;;
10509;SDS011;5303;53.266;10.410;2022-07-01T09:29:25;2.20;;;2.00;;
10509;SDS011;5303;53.266;10.410;2022-07-01T09:31:52;3.27;;;2.40;;
10509;SDS011;5303;53.266;10.410;2022-07-01T09:34:17;2.40;;;2.10;;
10509;SDS011;5303;53.266;10.410;2022-07-01T09:36:51;3.03;;;2.73;;
10509;SDS011;5303;53.266;10.410;2022-07-01T09:39:17;3.27;;;2.70;;
10509;SDS011;5303;53.266;10.410;2022-07-01T09:41:43;3.13;;;2.47;;
10509;SDS011;5303;53.266;10.410;2022-07-01T09:44:09;2.70;;;2.43;;
10509;SDS011;5303;53.266;10.410;2022-07-01T09:46:35;3.17;;;2.80;;
10509;SDS011;5303;53.266;10.410;2022-07-01T09:49:01;2.57;;;2.37;;
10509;SDS011;5303;53.266;10.410;2022-07-01T09:51:27;3.70;;;2.47;;
10509;SDS011;5303;53.266;10.410;2022-07-01T09:53:53;4.27;;;2.60;;
10509;SDS011;5303;53.266;10.410;2022-07-01T09:56:19;3.10;;;2.80;;
10509;SDS011;5303;53.266;10.410;2022-07-01T09:58:45;3.13;;;2.83;;
10509;SDS011;5303;53.266;10.410;2022-07-01T10:01:12;3.03;;;2.70;;
10509;SDS011;5303;53.266;10.410;2022-07-01T10:03:39;3.90;;;2.87;;
10509;SDS011;5303;53.266;10.410;2022-07-01T10:09:02;4.30;;;3.30;;
10509;SDS011;5303;53.266;10.410;2022-07-01T10:14:14;4.53;;;3.17;;
10509;SDS011;5303;53.266;10.410;2022-07-01T10:16:40;4.00;;;3.07;;
10509;SDS011;5303;53.266;10.410;2022-07-01T10:19:16;3.57;;;2.57;;
10509;SDS011;5303;53.266;10.410;2022-07-01T10:21:53;4.67;;;3.13;;
10509;SDS011;5303;53.266;10.410;2022-07-01T10:24:21;3.93;;;3.10;;
10509;SDS011;5303;53.266;10.410;2022-07-01T10:26:48;3.83;;;2.83;;
10509;SDS011;5303;53.266;10.410;2022-07-01T10:29:29;4.07;;;3.20;;
10509;SDS011;5303;53.266;10.410;2022-07-01T10:32:03;3.77;;;2.90;;
10509;SDS011;5303;53.266;10.410;2022-07-01T10:34:33;4.00;;;3.17;;
10509;SDS011;5303;53.266;10.410;2022-07-01T10:37:05;4.67;;;3.10;;
10509;SDS011;5303;53.266;10.410;2022-07-01T10:42:31;5.63;;;3.37;;
10509;SDS011;5303;53.266;10.410;2022-07-01T10:45:20;4.27;;;3.50;;
10509;SDS011;5303;53.266;10.410;2022-07-01T10:47:45;4.13;;;3.40;;
10509;SDS011;5303;53.266;10.410;2022-07-01T10:50:11;4.93;;;3.90;;
10509;SDS011;5303;53.266;10.410;2022-07-01T10:52:38;5.20;;;3.57;;
10509;SDS011;5303;53.266;10.410;2022-07-01T10:55:05;3.97;;;3.53;;
10509;SDS011;5303;53.266;10.410;2022-07-01T10:57:33;4.30;;;3.63;;
10509;SDS011;5303;53.266;10.410;2022-07-01T11:04:54;4.80;;;3.40;;
10509;SDS011;5303;53.266;10.410;2022-07-01T11:07:23;4.17;;;3.50;;
10509;SDS011;5303;53.266;10.410;2022-07-01T11:09:49;4.87;;;3.70;;
10509;SDS011;5303;53.266;10.410;2022-07-01T11:12:15;4.47;;;3.53;;
10509;SDS011;5303;53.266;10.410;2022-07-01T11:14:42;4.10;;;3.70;;
10509;SDS011;5303;53.266;10.410;2022-07-01T11:17:08;4.90;;;3.93;;
10509;SDS011;5303;53.266;10.410;2022-07-01T11:19:34;4.80;;;4.27;;
10509;SDS011;5303;53.266;10.410;2022-07-01T11:22:01;4.93;;;4.43;;
10509;SDS011;5303;53.266;10.410;2022-07-01T11:24:28;6.30;;;4.80;;
10509;SDS011;5303;53.266;10.410;2022-07-01T11:27:06;5.17;;;4.67;;
10509;SDS011;5303;53.266;10.410;2022-07-01T11:29:32;5.60;;;4.07;;
10509;SDS011;5303;53.266;10.410;2022-07-01T11:31:58;4.73;;;4.33;;
10509;SDS011;5303;53.266;10.410;2022-07-01T11:34:23;7.03;;;5.13;;
10509;SDS011;5303;53.266;10.410;2022-07-01T11:36:52;6.80;;;5.87;;
10509;SDS011;5303;53.266;10.410;2022-07-01T11:39:36;5.10;;;4.60;;
10509;SDS011;5303;53.266;10.410;2022-07-01T11:42:02;6.37;;;5.67;;
10509;SDS011;5303;53.266;10.410;2022-07-01T11:47:00;6.33;;;5.17;;
10509;SDS011;5303;53.266;10.410;2022-07-01T11:49:26;8.33;;;6.30;;
10509;SDS011;5303;53.266;10.410;2022-07-01T11:52:09;6.87;;;6.17;;
10509;SDS011;5303;53.266;10.410;2022-07-01T11:54:36;7.77;;;6.97;;
10509;SDS011;5303;53.266;10.410;2022-07-01T11:57:19;7.30;;;6.43;;
10509;SDS011;5303;53.266;10.410;2022-07-01T11:59:50;8.33;;;6.30;;
10509;SDS011;5303;53.266;10.410;2022-07-01T12:02:17;8.27;;;7.10;;
10509;SDS011;5303;53.266;10.410;2022-07-01T12:04:44;9.10;;;8.20;;
10509;SDS011;5303;53.266;10.410;2022-07-01T12:07:11;9.03;;;8.13;;
10509;SDS011;5303;53.266;10.410;2022-07-01T12:09:38;9.13;;;7.70;;
10509;SDS011;5303;53.266;10.410;2022-07-01T12:12:04;9.40;;;7.80;;
10509;SDS011;5303;53.266;10.410;2022-07-01T12:14:31;8.80;;;7.90;;
10509;SDS011;5303;53.266;10.410;2022-07-01T12:17:02;8.97;;;8.10;;
10509;SDS011;5303;53.266;10.410;2022-07-01T12:21:57;10.53;;;9.53;;
10509;SDS011;5303;53.266;10.410;2022-07-01T12:24:23;10.53;;;9.57;;
10509;SDS011;5303;53.266;10.410;2022-07-01T12:29:24;12.00;;;10.57;;
10509;SDS011;5303;53.266;10.410;2022-07-01T12:32:25;10.30;;;9.13;;
10509;SDS011;5303;53.266;10.410;2022-07-01T12:37:27;10.83;;;9.73;;
10509;SDS011;5303;53.266;10.410;2022-07-01T12:39:56;9.77;;;8.87;;
10509;SDS011;5303;53.266;10.410;2022-07-01T12:44:52;10.77;;;9.70;;
10509;SDS011;5303;53.266;10.410;2022-07-01T12:47:19;10.80;;;9.80;;
10509;SDS011;5303;53.266;10.410;2022-07-01T12:50:08;11.03;;;9.53;;
10509;SDS011;5303;53.266;10.410;2022-07-01T12:52:37;11.30;;;8.77;;
10509;SDS011;5303;53.266;10.410;2022-07-01T12:55:25;10.73;;;9.83;;
10509;SDS011;5303;53.266;10.410;2022-07-01T12:57:49;10.37;;;9.33;;
10509;SDS011;5303;53.266;10.410;2022-07-01T13:00:18;11.30;;;10.00;;
10509;SDS011;5303;53.266;10.410;2022-07-01T13:02:45;10.27;;;9.27;;
10509;SDS011;5303;53.266;10.410;2022-07-01T13:05:11;9.80;;;8.87;;
10509;SDS011;5303;53.266;10.410;2022-07-01T13:07:36;10.50;;;9.03;;
10509;SDS011;5303;53.266;10.410;2022-07-01T13:10:02;11.30;;;10.20;;
10509;SDS011;5303;53.266;10.410;2022-07-01T13:12:28;11.93;;;9.87;;
10509;SDS011;5303;53.266;10.410;2022-07-01T13:14:53;12.30;;;11.00;;
10509;SDS011;5303;53.266;10.410;2022-07-01T13:17:19;10.30;;;9.30;;
10509;SDS011;5303;53.266;10.410;2022-07-01T13:19:46;9.27;;;8.23;;
10509;SDS011;5303;53.266;10.410;2022-07-01T13:22:12;10.17;;;8.80;;
10509;SDS011;5303;53.266;10.410;2022-07-01T13:24:37;9.50;;;8.70;;
10509;SDS011;5303;53.266;10.410;2022-07-01T13:27:02;8.20;;;7.50;;
10509;SDS011;5303;53.266;10.410;2022-07-01T13:29:28;10.07;;;7.97;;
10509;SDS011;5303;53.266;10.410;2022-07-01T13:31:53;9.10;;;8.20;;
10509;SDS011;5303;53.266;10.410;2022-07-01T13:34:18;11.40;;;6.90;;
10509;SDS011;5303;53.266;10.410;2022-07-01T13:36:44;8.73;;;7.77;;
10509;SDS011;5303;53.266;10.410;2022-07-01T13:39:09;8.87;;;7.97;;
10509;SDS011;5303;53.266;10.410;2022-07-01T13:41:34;7.53;;;6.93;;
10509;SDS011;5303;53.266;10.410;2022-07-01T13:44:00;8.40;;;7.60;;
10509;SDS011;5303;53.266;10.410;2022-07-01T13:46:25;10.30;;;9.00;;
10509;SDS011;5303;53.266;10.410;2022-07-01T13:48:50;9.30;;;8.50;;
10509;SDS011;5303;53.266;10.410;2022-07-01T13:51:16;8.97;;;8.17;;
10509;SDS011;5303;53.266;10.410;2022-07-01T13:53:41;9.07;;;8.27;;
10509;SDS011;5303;53.266;10.410;2022-07-01T13:56:06;7.80;;;7.20;;
10509;SDS011;5303;53.266;10.410;2022-07-01T13:58:32;8.53;;;7.60;;
10509;SDS011;5303;53.266;10.410;2022-07-01T14:00:57;9.03;;;8.07;;
10509;SDS011;5303;53.266;10.410;2022-07-01T14:03:22;7.97;;;7.17;;
10509;SDS011;5303;53.266;10.410;2022-07-01T14:05:48;8.97;;;7.70;;
10509;SDS011;5303;53.266;10.410;2022-07-01T14:08:13;8.50;;;7.63;;
10509;SDS011;5303;53.266;10.410;2022-07-01T14:10:40;7.97;;;7.20;;
10509;SDS011;5303;53.266;10.410;2022-07-01T14:13:06;7.73;;;6.90;;
10509;SDS011;5303;53.266;10.410;2022-07-01T14:15:31;8.27;;;7.50;;
10509;SDS011;5303;53.266;10.410;2022-07-01T14:17:56;7.43;;;6.73;;
10509;SDS011;5303;53.266;10.410;2022-07-01T14:20:21;7.77;;;6.90;;
10509;SDS011;5303;53.266;10.410;2022-07-01T14:22:47;7.57;;;6.67;;
10509;SDS011;5303;53.266;10.410;2022-07-01T14:25:12;8.63;;;7.60;;
10509;SDS011;5303;53.266;10.410;2022-07-01T14:27:37;10.33;;;7.70;;
10509;SDS011;5303;53.266;10.410;2022-07-01T14:30:03;8.40;;;5.93;;
10509;SDS011;5303;53.266;10.410;2022-07-01T14:32:30;7.90;;;7.10;;
10509;SDS011;5303;53.266;10.410;2022-07-01T14:34:56;9.00;;;7.00;;
10509;SDS011;5303;53.266;10.410;2022-07-01T14:37:21;5.90;;;5.30;;
10509;SDS011;5303;53.266;10.410;2022-07-01T14:39:47;7.53;;;6.50;;
10509;SDS011;5303;53.266;10.410;2022-07-01T14:42:16;6.03;;;5.40;;
10509;SDS011;5303;53.266;10.410;2022-07-01T14:44:41;7.60;;;6.83;;
10509;SDS011;5303;53.266;10.410;2022-07-01T14:47:06;8.20;;;6.47;;
10509;SDS011;5303;53.266;10.410;2022-07-01T14:49:32;7.60;;;6.63;;
10509;SDS011;5303;53.266;10.410;2022-07-01T14:52:00;9.10;;;8.03;;
10509;SDS011;5303;53.266;10.410;2022-07-01T14:54:26;8.33;;;7.50;;
10509;SDS011;5303;53.266;10.410;2022-07-01T14:56:51;9.10;;;8.20;;
10509;SDS011;5303;53.266;10.410;2022-07-01T14:59:17;8.77;;;7.80;;
10509;SDS011;5303;53.266;10.410;2022-07-01T15:01:42;7.50;;;6.67;;
10509;SDS011;5303;53.266;10.410;2022-07-01T15:04:07;7.50;;;6.80;;
10509;SDS011;5303;53.266;10.410;2022-07-01T15:06:33;7.00;;;6.30;;
10509;SDS011;5303;53.266;10.410;2022-07-01T15:08:58;8.07;;;7.10;;
10509;SDS011;5303;53.266;10.410;2022-07-01T15:11:24;7.50;;;6.70;;